York, NE

7:45 AM CST on December 09, 2019 (GMT -0600)
York Municipal

Weather History for KJYR - October, 2019

Change the Weather History Date:

Saturday, October 12, 2019

  Actual Average Record
Temperature  
Mean Temperature 42 °F -  
Max Temperature 59 °F 69 °F 94 °F (1975)
Min Temperature 26 °F 43 °F 26 °F (1977)
Degree Days  
Heating Degree Days 22    
Moisture  
Dew Point 24 °F    
Average Humidity 60    
Maximum Humidity 93    
Minimum Humidity 21    
Precipitation  
Precipitation 0.00 in - - ()
Sea Level Pressure  
Sea Level Pressure 29.97 in    
Wind  
Wind Speed 8 mph (West)    
Max Wind Speed 20 mph    
Max Gust Speed 26 mph    
Visibility 10 miles    
Events      
Averages and records for this station are not official NWS values.
T = Trace of Precipitation, MM = Missing Value Source: NWS Daily Summary

Daily Weather History Graph

Daily Weather History Graph

Search for Another Location

Airport or City:

Astronomy

Oct. 12, 2019 Rise Set
Actual Time 7:38 AM CDT 6:54 PM CDT
Civil Twilight 7:10 AM CDT 7:22 PM CDT
Nautical Twilight 6:39 AM CDT 7:54 PM CDT
Astronomical Twilight 6:07 AM CDT 8:25 PM CDT
Moon 6:52 PM CDT (10/12) 6:15 AM CDT (10/12)
Length of Visible Light 12h 11m
Length of Day
11h 16m
Waxing Gibbous, 99% of the Moon is Illuminated
Oct 12
Waxing Gibbous
Oct 13
Full
Oct 21
Last Quarter
Oct 27
New
Nov 4
First Quarter

Hourly Weather History & Observations

Time (CDT) Temp. Windchill Dew Point Humidity Pressure Visibility Wind Dir Wind Speed Gust Speed Precip Events Conditions
12:15 AM 28.4 °F 20.4 °F 24.8 °F 86% 30.11 in 10.0 mi SW 8.1 mph - N/A   Clear
12:35 AM 26.6 °F 20.0 °F 24.8 °F 93% 30.11 in 10.0 mi SW 5.8 mph - N/A   Clear
12:55 AM 26.6 °F 22.6 °F 24.8 °F 93% 30.10 in 10.0 mi SW 3.5 mph - N/A   Clear
1:15 AM 26.6 °F 21.2 °F 24.8 °F 93% 30.09 in 10.0 mi SW 4.6 mph - N/A   Clear
1:35 AM 26.6 °F 20.0 °F 24.8 °F 93% 30.08 in 10.0 mi SW 5.8 mph - N/A   Clear
1:55 AM 28.4 °F 21.2 °F 24.8 °F 86% 30.08 in 10.0 mi WSW 6.9 mph - N/A   Clear
2:15 AM 26.6 °F 19.1 °F 24.8 °F 93% 30.08 in 10.0 mi WSW 6.9 mph - N/A   Clear
2:35 AM 28.4 °F 21.2 °F 24.8 °F 86% 30.07 in 10.0 mi WSW 6.9 mph - N/A   Clear
2:55 AM 26.6 °F 19.1 °F 24.8 °F 93% 30.07 in 10.0 mi West 6.9 mph - N/A   Clear
3:15 AM 28.4 °F 21.2 °F 24.8 °F 86% 30.07 in 10.0 mi WSW 6.9 mph - N/A   Clear
3:35 AM 28.4 °F 19.7 °F 24.8 °F 86% 30.06 in 10.0 mi West 9.2 mph - N/A   Clear
3:55 AM 28.4 °F 21.2 °F 24.8 °F 86% 30.05 in 10.0 mi West 6.9 mph - N/A   Clear
4:15 AM 28.4 °F 22.2 °F 24.8 °F 86% 30.05 in 10.0 mi West 5.8 mph - N/A   Clear
4:35 AM 28.4 °F 22.2 °F 24.8 °F 86% 30.05 in 10.0 mi WSW 5.8 mph - N/A   Clear
4:55 AM - - - N/A% 30.05 in - WSW 9.2 mph - N/A   Unknown
5:15 AM 28.4 °F 21.2 °F 24.8 °F 86% 30.05 in 10.0 mi West 6.9 mph - N/A   Clear
5:35 AM 28.4 °F 21.2 °F 24.8 °F 86% 30.04 in 10.0 mi West 6.9 mph - N/A   Clear
5:55 AM 28.4 °F 21.2 °F 24.8 °F 86% 30.04 in 10.0 mi WSW 6.9 mph - N/A   Clear
6:15 AM 28.4 °F 23.3 °F 24.8 °F 86% 30.03 in 10.0 mi WSW 4.6 mph - N/A   Clear
6:35 AM 26.6 °F - 24.8 °F 93% 30.02 in 10.0 mi Calm Calm - N/A   Clear
6:55 AM 26.6 °F 20.0 °F 24.8 °F 93% 30.02 in 10.0 mi WSW 5.8 mph - N/A   Clear
7:15 AM 26.6 °F 20.0 °F 24.8 °F 93% 30.02 in 10.0 mi WSW 5.8 mph - N/A   Clear
7:35 AM 26.6 °F 22.6 °F 24.8 °F 93% 30.02 in 10.0 mi West 3.5 mph - N/A   Clear
7:55 AM 26.6 °F 19.1 °F 24.8 °F 93% 30.03 in 10.0 mi West 6.9 mph - N/A   Clear
8:35 AM 30.2 °F 22.6 °F 24.8 °F 80% 30.03 in 10.0 mi West 8.1 mph - N/A   Clear
8:55 AM 32.0 °F 25.6 °F 26.6 °F 80% 30.01 in 10.0 mi WNW 6.9 mph - N/A   Clear
9:15 AM 35.6 °F 30.7 °F 28.4 °F 75% 30.00 in 10.0 mi WNW 5.8 mph - N/A   Clear
9:35 AM 37.4 °F 32.1 °F 26.6 °F 65% 30.00 in 10.0 mi WNW 6.9 mph - N/A   Clear
9:55 AM 39.2 °F 33.6 °F 28.4 °F 65% 29.99 in 10.0 mi West 8.1 mph - N/A   Clear
10:15 AM 41.0 °F 34.3 °F 26.6 °F 57% 29.97 in 10.0 mi West 11.5 mph - N/A   Clear
10:35 AM 44.6 °F 39.2 °F 26.6 °F 49% 29.97 in 10.0 mi West 10.4 mph - N/A   Clear
10:55 AM 46.4 °F 40.4 °F 24.8 °F 43% 29.98 in 10.0 mi West 13.8 mph - N/A   Clear
11:15 AM 46.4 °F 40.1 °F 26.6 °F 46% 29.98 in 10.0 mi WNW 15.0 mph 19.6 mph N/A   Clear
11:35 AM 46.4 °F 40.1 °F 26.6 °F 46% 29.98 in 10.0 mi NW 15.0 mph - N/A   Clear
11:55 AM 48.2 °F - 26.6 °F 43% 29.98 in 10.0 mi WNW 16.1 mph 23.0 mph N/A   Clear
12:15 PM 48.2 °F - 26.6 °F 43% 29.97 in 10.0 mi West 16.1 mph - N/A   Clear
12:35 PM 50.0 °F - 26.6 °F 40% 29.96 in 10.0 mi WNW 13.8 mph 18.4 mph N/A   Clear
12:55 PM 51.8 °F - 26.6 °F 38% 29.94 in 10.0 mi WNW 16.1 mph 24.2 mph N/A   Clear
1:15 PM 53.6 °F - 26.6 °F 35% 29.93 in 10.0 mi West 17.3 mph 20.7 mph N/A   Clear
1:35 PM 53.6 °F - 26.6 °F 35% 29.93 in 10.0 mi West 13.8 mph - N/A   Clear
1:55 PM 55.4 °F - 24.8 °F 31% 29.92 in 10.0 mi WNW 19.6 mph 24.2 mph N/A   Clear
2:15 PM 57.2 °F - 23.0 °F 27% 29.91 in 10.0 mi WNW 18.4 mph 24.2 mph N/A   Clear
2:35 PM 57.2 °F - 23.0 °F 27% 29.90 in 10.0 mi WNW 19.6 mph 26.5 mph N/A   Clear
2:55 PM 57.2 °F - 23.0 °F 27% 29.90 in 10.0 mi West 16.1 mph 24.2 mph N/A   Clear
3:15 PM 57.2 °F - 23.0 °F 27% 29.89 in 10.0 mi West 17.3 mph 20.7 mph N/A   Clear
3:35 PM 57.2 °F - 23.0 °F 27% 29.89 in 10.0 mi West 16.1 mph 23.0 mph N/A   Clear
3:55 PM 57.2 °F - 23.0 °F 27% 29.88 in 10.0 mi WNW 11.5 mph 21.9 mph N/A   Clear
4:15 PM 59.0 °F - 23.0 °F 25% 29.88 in 10.0 mi West 16.1 mph 19.6 mph N/A   Clear
4:35 PM 59.0 °F - 23.0 °F 25% 29.87 in 10.0 mi West 13.8 mph 20.7 mph N/A   Clear
4:55 PM 57.2 °F - 23.0 °F 27% 29.87 in 10.0 mi West 11.5 mph 23.0 mph N/A   Clear
5:15 PM 57.2 °F - 17.6 °F 21% 29.87 in 10.0 mi WNW 18.4 mph 26.5 mph N/A   Clear
5:35 PM 57.2 °F - 19.4 °F 23% 29.87 in 10.0 mi WNW 13.8 mph 21.9 mph N/A   Clear
5:55 PM 57.2 °F - 19.4 °F 23% 29.87 in 10.0 mi WNW 15.0 mph - N/A   Clear
6:15 PM 55.4 °F - 19.4 °F 25% 29.88 in 10.0 mi NW 9.2 mph 16.1 mph N/A   Clear
6:35 PM 53.6 °F - 21.2 °F 28% 29.88 in 10.0 mi WNW 9.2 mph - N/A   Clear
6:55 PM 50.0 °F - 21.2 °F 32% 29.89 in 10.0 mi NW 6.9 mph - N/A   Clear
7:15 PM 48.2 °F - 21.2 °F 34% 29.89 in 10.0 mi NW 6.9 mph - N/A   Clear
7:35 PM 46.4 °F 41.9 °F 21.2 °F 37% 29.90 in 10.0 mi NW 9.2 mph - N/A   Clear
7:55 PM 44.6 °F 40.2 °F 23.0 °F 43% 29.91 in 10.0 mi NW 8.1 mph - N/A   Clear
8:15 PM 42.8 °F 38.6 °F 23.0 °F 46% 29.91 in 10.0 mi NW 6.9 mph - N/A   Clear
8:35 PM 41.0 °F 35.8 °F 21.2 °F 45% 29.91 in 10.0 mi NNW 8.1 mph - N/A   Clear
8:55 PM 41.0 °F - 23.0 °F 49% 29.91 in 10.0 mi Calm Calm - N/A   Clear
9:15 PM 41.0 °F 36.4 °F 21.2 °F 45% 29.90 in 10.0 mi NW 6.9 mph - N/A   Clear
9:35 PM 39.2 °F 35.9 °F 23.0 °F 52% 29.91 in 10.0 mi WNW 4.6 mph - N/A   Clear
9:55 PM 35.6 °F - 24.8 °F 65% 29.91 in 10.0 mi Calm Calm - N/A   Clear
10:15 PM 32.0 °F - 26.6 °F 80% 29.91 in 10.0 mi Calm Calm - N/A   Clear
10:35 PM 33.8 °F 27.7 °F 24.8 °F 70% 29.91 in 10.0 mi WNW 6.9 mph - N/A   Clear
10:55 PM 32.0 °F 25.6 °F 26.6 °F 80% 29.91 in 10.0 mi WNW 6.9 mph - N/A   Clear
11:15 PM 32.0 °F - 26.6 °F 80% 29.91 in 10.0 mi Calm Calm - N/A   Clear
11:35 PM 32.0 °F 25.6 °F 26.6 °F 80% 29.91 in 10.0 mi WSW 6.9 mph - N/A   Clear
11:55 PM 32.0 °F 25.6 °F 26.6 °F 80% 29.92 in 10.0 mi West 6.9 mph - N/A   Clear